sensor_id;sensor_type;location;lat;lon;timestamp;pressure;altitude;pressure_sealevel;temperature;humidity
62632;BME280;48703;51.248;-0.546;2022-12-18T00:02:22;101596;;;0.28;88.74
62632;BME280;48703;51.248;-0.546;2022-12-18T00:05:24;101595;;;0.27;88.78
62632;BME280;48703;51.248;-0.546;2022-12-18T00:08:26;101585;;;0.26;88.75
62632;BME280;48703;51.248;-0.546;2022-12-18T00:11:29;101581;;;0.25;88.85
62632;BME280;48703;51.248;-0.546;2022-12-18T00:14:30;101588;;;0.24;88.84
62632;BME280;48703;51.248;-0.546;2022-12-18T00:17:32;101589;;;0.24;88.82
62632;BME280;48703;51.248;-0.546;2022-12-18T00:20:36;101589;;;0.22;88.52
62632;BME280;48703;51.248;-0.546;2022-12-18T00:23:36;101588;;;0.18;88.45
62632;BME280;48703;51.248;-0.546;2022-12-18T00:26:38;101584;;;0.14;88.59
62632;BME280;48703;51.248;-0.546;2022-12-18T00:29:40;101583;;;0.13;88.53
62632;BME280;48703;51.248;-0.546;2022-12-18T00:32:42;101577;;;0.10;88.66
62632;BME280;48703;51.248;-0.546;2022-12-18T00:35:44;101575;;;0.08;88.71
62632;BME280;48703;51.248;-0.546;2022-12-18T00:38:46;101576;;;0.05;88.82
62632;BME280;48703;51.248;-0.546;2022-12-18T00:41:48;101570;;;0.04;88.81
62632;BME280;48703;51.248;-0.546;2022-12-18T00:44:50;101563;;;0.03;88.94
62632;BME280;48703;51.248;-0.546;2022-12-18T00:47:52;101562;;;0.02;88.90
62632;BME280;48703;51.248;-0.546;2022-12-18T00:50:54;101563;;;-0.00;88.71
62632;BME280;48703;51.248;-0.546;2022-12-18T00:53:56;101561;;;-0.04;88.69
62632;BME280;48703;51.248;-0.546;2022-12-18T00:56:58;101551;;;-0.06;88.78
62632;BME280;48703;51.248;-0.546;2022-12-18T01:00:00;101546;;;-0.10;88.67
62632;BME280;48703;51.248;-0.546;2022-12-18T01:03:02;101536;;;-0.12;88.85
62632;BME280;48703;51.248;-0.546;2022-12-18T01:06:05;101527;;;-0.15;88.76
62632;BME280;48703;51.248;-0.546;2022-12-18T01:09:06;101525;;;-0.16;88.99
62632;BME280;48703;51.248;-0.546;2022-12-18T01:12:08;101530;;;-0.15;89.17
62632;BME280;48703;51.248;-0.546;2022-12-18T01:15:10;101523;;;-0.16;89.06
62632;BME280;48703;51.248;-0.546;2022-12-18T01:18:12;101516;;;-0.19;89.11
62632;BME280;48703;51.248;-0.546;2022-12-18T01:21:14;101514;;;-0.16;89.38
62632;BME280;48703;51.248;-0.546;2022-12-18T01:24:16;101511;;;-0.15;89.31
62632;BME280;48703;51.248;-0.546;2022-12-18T01:27:18;101513;;;-0.13;89.25
62632;BME280;48703;51.248;-0.546;2022-12-18T01:30:20;101511;;;-0.12;89.34
62632;BME280;48703;51.248;-0.546;2022-12-18T01:33:22;101511;;;-0.11;89.22
62632;BME280;48703;51.248;-0.546;2022-12-18T01:36:24;101513;;;-0.09;89.14
62632;BME280;48703;51.248;-0.546;2022-12-18T01:39:25;101511;;;-0.08;89.10
62632;BME280;48703;51.248;-0.546;2022-12-18T01:42:27;101510;;;-0.08;89.04
62632;BME280;48703;51.248;-0.546;2022-12-18T01:45:30;101512;;;-0.08;89.18
62632;BME280;48703;51.248;-0.546;2022-12-18T01:48:31;101504;;;-0.04;89.25
62632;BME280;48703;51.248;-0.546;2022-12-18T01:51:33;101503;;;-0.02;89.11
62632;BME280;48703;51.248;-0.546;2022-12-18T01:54:43;101506;;;-0.03;89.09
62632;BME280;48703;51.248;-0.546;2022-12-18T01:57:38;101503;;;-0.04;88.96
62632;BME280;48703;51.248;-0.546;2022-12-18T02:00:39;101507;;;-0.04;89.08
62632;BME280;48703;51.248;-0.546;2022-12-18T02:03:42;101511;;;-0.03;89.01
62632;BME280;48703;51.248;-0.546;2022-12-18T02:06:43;101517;;;-0.03;89.13
62632;BME280;48703;51.248;-0.546;2022-12-18T02:09:46;101521;;;-0.02;89.13
62632;BME280;48703;51.248;-0.546;2022-12-18T02:12:48;101521;;;-0.01;89.15
62632;BME280;48703;51.248;-0.546;2022-12-18T02:15:51;101516;;;-0.00;89.13
62632;BME280;48703;51.248;-0.546;2022-12-18T02:18:53;101523;;;0.02;89.17
62632;BME280;48703;51.248;-0.546;2022-12-18T02:21:54;101524;;;0.03;89.02
62632;BME280;48703;51.248;-0.546;2022-12-18T02:24:59;101521;;;0.02;89.06
62632;BME280;48703;51.248;-0.546;2022-12-18T02:27:57;101526;;;0.05;89.05
62632;BME280;48703;51.248;-0.546;2022-12-18T02:31:00;101524;;;0.06;89.08
62632;BME280;48703;51.248;-0.546;2022-12-18T02:34:02;101524;;;0.05;88.99
62632;BME280;48703;51.248;-0.546;2022-12-18T02:37:05;101523;;;0.07;89.16
62632;BME280;48703;51.248;-0.546;2022-12-18T02:40:06;101524;;;0.08;89.16
62632;BME280;48703;51.248;-0.546;2022-12-18T02:43:07;101531;;;0.10;89.21
62632;BME280;48703;51.248;-0.546;2022-12-18T02:46:21;101530;;;0.13;89.26
62632;BME280;48703;51.248;-0.546;2022-12-18T02:49:14;101524;;;0.15;89.21
62632;BME280;48703;51.248;-0.546;2022-12-18T02:52:15;101515;;;0.17;89.16
62632;BME280;48703;51.248;-0.546;2022-12-18T02:55:18;101513;;;0.18;89.04
62632;BME280;48703;51.248;-0.546;2022-12-18T02:58:18;101512;;;0.21;89.03
62632;BME280;48703;51.248;-0.546;2022-12-18T03:01:21;101503;;;0.22;88.93
62632;BME280;48703;51.248;-0.546;2022-12-18T03:04:22;101490;;;0.24;88.80
62632;BME280;48703;51.248;-0.546;2022-12-18T03:07:34;101484;;;0.25;88.73
62632;BME280;48703;51.248;-0.546;2022-12-18T03:10:26;101485;;;0.25;88.67
62632;BME280;48703;51.248;-0.546;2022-12-18T03:13:27;101483;;;0.27;88.64
62632;BME280;48703;51.248;-0.546;2022-12-18T03:16:29;101484;;;0.28;88.49
62632;BME280;48703;51.248;-0.546;2022-12-18T03:20:06;101480;;;0.27;88.45
62632;BME280;48703;51.248;-0.546;2022-12-18T03:22:33;101467;;;0.27;88.40
62632;BME280;48703;51.248;-0.546;2022-12-18T03:25:35;101471;;;0.25;88.46
62632;BME280;48703;51.248;-0.546;2022-12-18T03:28:38;101474;;;0.25;88.51
62632;BME280;48703;51.248;-0.546;2022-12-18T03:31:39;101473;;;0.25;88.53
62632;BME280;48703;51.248;-0.546;2022-12-18T03:34:41;101473;;;0.26;88.42
62632;BME280;48703;51.248;-0.546;2022-12-18T03:37:43;101472;;;0.25;88.52
62632;BME280;48703;51.248;-0.546;2022-12-18T03:40:49;101470;;;0.25;88.55
62632;BME280;48703;51.248;-0.546;2022-12-18T03:43:49;101462;;;0.26;88.47
62632;BME280;48703;51.248;-0.546;2022-12-18T03:46:51;101455;;;0.25;88.39
62632;BME280;48703;51.248;-0.546;2022-12-18T03:49:53;101469;;;0.25;88.46
62632;BME280;48703;51.248;-0.546;2022-12-18T03:52:54;101472;;;0.25;88.44
62632;BME280;48703;51.248;-0.546;2022-12-18T03:55:55;101464;;;0.26;88.46
62632;BME280;48703;51.248;-0.546;2022-12-18T03:58:57;101458;;;0.25;88.42
62632;BME280;48703;51.248;-0.546;2022-12-18T04:01:59;101443;;;0.27;88.50
62632;BME280;48703;51.248;-0.546;2022-12-18T04:05:02;101442;;;0.27;88.39
62632;BME280;48703;51.248;-0.546;2022-12-18T04:08:03;101445;;;0.28;88.50
62632;BME280;48703;51.248;-0.546;2022-12-18T04:11:05;101443;;;0.30;88.51
62632;BME280;48703;51.248;-0.546;2022-12-18T04:14:07;101444;;;0.32;88.43
62632;BME280;48703;51.248;-0.546;2022-12-18T04:17:09;101455;;;0.34;88.48
62632;BME280;48703;51.248;-0.546;2022-12-18T04:20:11;101449;;;0.36;88.44
62632;BME280;48703;51.248;-0.546;2022-12-18T04:23:13;101442;;;0.39;88.32
62632;BME280;48703;51.248;-0.546;2022-12-18T04:26:15;101440;;;0.41;88.28
62632;BME280;48703;51.248;-0.546;2022-12-18T04:29:17;101449;;;0.43;88.21
62632;BME280;48703;51.248;-0.546;2022-12-18T04:32:19;101448;;;0.44;88.17
62632;BME280;48703;51.248;-0.546;2022-12-18T04:35:21;101436;;;0.45;88.10
62632;BME280;48703;51.248;-0.546;2022-12-18T04:38:23;101423;;;0.46;87.99
62632;BME280;48703;51.248;-0.546;2022-12-18T04:41:25;101415;;;0.48;87.91
62632;BME280;48703;51.248;-0.546;2022-12-18T04:44:27;101414;;;0.49;87.85
62632;BME280;48703;51.248;-0.546;2022-12-18T04:47:29;101407;;;0.50;87.80
62632;BME280;48703;51.248;-0.546;2022-12-18T04:50:31;101392;;;0.50;87.79
62632;BME280;48703;51.248;-0.546;2022-12-18T04:53:33;101396;;;0.50;87.72
62632;BME280;48703;51.248;-0.546;2022-12-18T04:56:35;101397;;;0.51;87.76
62632;BME280;48703;51.248;-0.546;2022-12-18T04:59:37;101390;;;0.50;87.74
62632;BME280;48703;51.248;-0.546;2022-12-18T05:02:39;101385;;;0.50;87.68
62632;BME280;48703;51.248;-0.546;2022-12-18T05:05:41;101379;;;0.50;87.56
62632;BME280;48703;51.248;-0.546;2022-12-18T05:08:43;101377;;;0.50;87.55
62632;BME280;48703;51.248;-0.546;2022-12-18T05:11:45;101375;;;0.51;87.57
62632;BME280;48703;51.248;-0.546;2022-12-18T05:14:47;101369;;;0.51;87.49
62632;BME280;48703;51.248;-0.546;2022-12-18T05:17:49;101366;;;0.51;87.32
62632;BME280;48703;51.248;-0.546;2022-12-18T05:20:51;101361;;;0.52;87.25
62632;BME280;48703;51.248;-0.546;2022-12-18T05:23:53;101357;;;0.53;87.42
62632;BME280;48703;51.248;-0.546;2022-12-18T05:26:55;101358;;;0.54;87.19
62632;BME280;48703;51.248;-0.546;2022-12-18T05:29:57;101345;;;0.54;87.21
62632;BME280;48703;51.248;-0.546;2022-12-18T05:32:59;101335;;;0.54;87.16
62632;BME280;48703;51.248;-0.546;2022-12-18T05:36:02;101325;;;0.53;87.22
62632;BME280;48703;51.248;-0.546;2022-12-18T05:38:09;101323;;;0.54;87.20
62632;BME280;48703;51.248;-0.546;2022-12-18T05:41:04;101317;;;0.54;87.03
62632;BME280;48703;51.248;-0.546;2022-12-18T05:44:06;101316;;;0.55;87.08
62632;BME280;48703;51.248;-0.546;2022-12-18T05:47:08;101316;;;0.55;87.14
62632;BME280;48703;51.248;-0.546;2022-12-18T05:50:10;101314;;;0.56;86.94
62632;BME280;48703;51.248;-0.546;2022-12-18T05:53:12;101300;;;0.56;86.94
62632;BME280;48703;51.248;-0.546;2022-12-18T05:56:16;101293;;;0.56;86.96
62632;BME280;48703;51.248;-0.546;2022-12-18T05:59:16;101287;;;0.57;86.87
62632;BME280;48703;51.248;-0.546;2022-12-18T06:02:18;101272;;;0.58;86.76
62632;BME280;48703;51.248;-0.546;2022-12-18T06:05:20;101261;;;0.58;86.59
62632;BME280;48703;51.248;-0.546;2022-12-18T06:08:22;101259;;;0.59;86.64
62632;BME280;48703;51.248;-0.546;2022-12-18T06:11:25;101260;;;0.60;86.59
62632;BME280;48703;51.248;-0.546;2022-12-18T06:14:26;101249;;;0.61;86.53
62632;BME280;48703;51.248;-0.546;2022-12-18T06:17:28;101239;;;0.62;86.56
62632;BME280;48703;51.248;-0.546;2022-12-18T06:20:30;101236;;;0.64;86.50
62632;BME280;48703;51.248;-0.546;2022-12-18T06:23:32;101231;;;0.65;86.57
62632;BME280;48703;51.248;-0.546;2022-12-18T06:26:36;101218;;;0.68;86.55
62632;BME280;48703;51.248;-0.546;2022-12-18T06:29:36;101214;;;0.70;86.37
62632;BME280;48703;51.248;-0.546;2022-12-18T06:32:38;101215;;;0.74;86.22
62632;BME280;48703;51.248;-0.546;2022-12-18T06:35:40;101217;;;0.77;86.28
62632;BME280;48703;51.248;-0.546;2022-12-18T06:38:42;101216;;;0.79;86.18
62632;BME280;48703;51.248;-0.546;2022-12-18T06:41:44;101216;;;0.82;86.16
62632;BME280;48703;51.248;-0.546;2022-12-18T06:44:46;101216;;;0.85;86.15
62632;BME280;48703;51.248;-0.546;2022-12-18T06:47:48;101218;;;0.87;85.87
62632;BME280;48703;51.248;-0.546;2022-12-18T06:50:50;101219;;;0.88;85.75
62632;BME280;48703;51.248;-0.546;2022-12-18T06:53:52;101221;;;0.90;85.59
62632;BME280;48703;51.248;-0.546;2022-12-18T06:56:54;101222;;;0.92;85.52
62632;BME280;48703;51.248;-0.546;2022-12-18T06:59:56;101215;;;0.93;85.50
62632;BME280;48703;51.248;-0.546;2022-12-18T07:02:58;101213;;;0.93;85.33
62632;BME280;48703;51.248;-0.546;2022-12-18T07:06:00;101212;;;0.93;85.37
62632;BME280;48703;51.248;-0.546;2022-12-18T07:09:02;101204;;;0.93;85.37
62632;BME280;48703;51.248;-0.546;2022-12-18T07:12:04;101208;;;0.92;85.27
62632;BME280;48703;51.248;-0.546;2022-12-18T07:15:06;101205;;;0.91;85.14
62632;BME280;48703;51.248;-0.546;2022-12-18T07:18:08;101204;;;0.91;85.18
62632;BME280;48703;51.248;-0.546;2022-12-18T07:21:11;101205;;;0.90;85.26
62632;BME280;48703;51.248;-0.546;2022-12-18T07:24:12;101198;;;0.90;85.12
62632;BME280;48703;51.248;-0.546;2022-12-18T07:27:14;101193;;;0.89;85.23
62632;BME280;48703;51.248;-0.546;2022-12-18T07:30:16;101189;;;0.88;85.14
62632;BME280;48703;51.248;-0.546;2022-12-18T07:33:18;101186;;;0.88;85.17
62632;BME280;48703;51.248;-0.546;2022-12-18T07:36:20;101186;;;0.88;84.89
62632;BME280;48703;51.248;-0.546;2022-12-18T07:39:22;101179;;;0.88;85.07
62632;BME280;48703;51.248;-0.546;2022-12-18T07:42:24;101169;;;0.88;84.91
62632;BME280;48703;51.248;-0.546;2022-12-18T07:45:26;101161;;;0.90;84.78
62632;BME280;48703;51.248;-0.546;2022-12-18T07:48:28;101159;;;0.91;84.91
62632;BME280;48703;51.248;-0.546;2022-12-18T07:51:30;101162;;;0.93;84.88
62632;BME280;48703;51.248;-0.546;2022-12-18T07:54:32;101162;;;0.95;85.05
62632;BME280;48703;51.248;-0.546;2022-12-18T07:57:34;101159;;;0.96;84.94
62632;BME280;48703;51.248;-0.546;2022-12-18T08:00:36;101163;;;0.99;85.04
62632;BME280;48703;51.248;-0.546;2022-12-18T08:03:38;101151;;;1.01;84.92
62632;BME280;48703;51.248;-0.546;2022-12-18T08:06:40;101147;;;1.03;84.94
62632;BME280;48703;51.248;-0.546;2022-12-18T08:09:42;101148;;;1.05;84.98
62632;BME280;48703;51.248;-0.546;2022-12-18T08:12:44;101149;;;1.08;85.01
62632;BME280;48703;51.248;-0.546;2022-12-18T08:15:46;101149;;;1.10;84.90
62632;BME280;48703;51.248;-0.546;2022-12-18T08:18:48;101160;;;1.11;85.12
62632;BME280;48703;51.248;-0.546;2022-12-18T08:21:50;101165;;;1.13;85.15
62632;BME280;48703;51.248;-0.546;2022-12-18T08:24:52;101167;;;1.16;85.13
62632;BME280;48703;51.248;-0.546;2022-12-18T08:27:54;101164;;;1.17;85.23
62632;BME280;48703;51.248;-0.546;2022-12-18T08:30:56;101159;;;1.19;85.04
62632;BME280;48703;51.248;-0.546;2022-12-18T08:33:58;101164;;;1.23;84.90
62632;BME280;48703;51.248;-0.546;2022-12-18T08:37:00;101172;;;1.27;84.80
62632;BME280;48703;51.248;-0.546;2022-12-18T08:40:02;101176;;;1.30;84.88
62632;BME280;48703;51.248;-0.546;2022-12-18T08:43:04;101177;;;1.32;84.95
62632;BME280;48703;51.248;-0.546;2022-12-18T08:46:06;101177;;;1.34;85.00
62632;BME280;48703;51.248;-0.546;2022-12-18T08:49:08;101169;;;1.37;84.85
62632;BME280;48703;51.248;-0.546;2022-12-18T08:52:10;101163;;;1.40;84.81
62632;BME280;48703;51.248;-0.546;2022-12-18T08:55:12;101154;;;1.42;84.74
62632;BME280;48703;51.248;-0.546;2022-12-18T08:58:14;101151;;;1.45;84.62
62632;BME280;48703;51.248;-0.546;2022-12-18T09:01:16;101158;;;1.47;84.66
62632;BME280;48703;51.248;-0.546;2022-12-18T09:04:18;101159;;;1.49;84.59
62632;BME280;48703;51.248;-0.546;2022-12-18T09:07:20;101158;;;1.51;84.79
62632;BME280;48703;51.248;-0.546;2022-12-18T09:10:22;101162;;;1.53;84.77
62632;BME280;48703;51.248;-0.546;2022-12-18T09:13:24;101158;;;1.53;84.84
62632;BME280;48703;51.248;-0.546;2022-12-18T09:16:26;101161;;;1.54;84.73
62632;BME280;48703;51.248;-0.546;2022-12-18T09:19:28;101162;;;1.56;84.76
62632;BME280;48703;51.248;-0.546;2022-12-18T09:22:30;101161;;;1.59;84.82
62632;BME280;48703;51.248;-0.546;2022-12-18T09:25:32;101177;;;1.60;84.98
62632;BME280;48703;51.248;-0.546;2022-12-18T09:28:34;101185;;;1.62;84.94
62632;BME280;48703;51.248;-0.546;2022-12-18T09:31:36;101185;;;1.63;85.07
62632;BME280;48703;51.248;-0.546;2022-12-18T09:34:38;101184;;;1.64;85.07
62632;BME280;48703;51.248;-0.546;2022-12-18T09:37:40;101181;;;1.65;85.21
62632;BME280;48703;51.248;-0.546;2022-12-18T09:40:43;101171;;;1.68;85.09
62632;BME280;48703;51.248;-0.546;2022-12-18T09:43:45;101167;;;1.70;85.13
62632;BME280;48703;51.248;-0.546;2022-12-18T09:46:47;101168;;;1.71;85.07
62632;BME280;48703;51.248;-0.546;2022-12-18T09:49:48;101170;;;1.73;85.14
62632;BME280;48703;51.248;-0.546;2022-12-18T09:52:50;101174;;;1.74;85.15
62632;BME280;48703;51.248;-0.546;2022-12-18T09:55:52;101179;;;1.76;85.29
62632;BME280;48703;51.248;-0.546;2022-12-18T09:58:55;101177;;;1.77;85.28
62632;BME280;48703;51.248;-0.546;2022-12-18T10:01:56;101183;;;1.79;85.20
62632;BME280;48703;51.248;-0.546;2022-12-18T10:05:05;101177;;;1.81;85.29
62632;BME280;48703;51.248;-0.546;2022-12-18T10:08:01;101170;;;1.82;85.51
62632;BME280;48703;51.248;-0.546;2022-12-18T10:11:12;101166;;;1.84;85.45
62632;BME280;48703;51.248;-0.546;2022-12-18T10:14:05;101160;;;1.86;85.55
62632;BME280;48703;51.248;-0.546;2022-12-18T10:17:10;101151;;;1.87;85.52
62632;BME280;48703;51.248;-0.546;2022-12-18T10:20:10;101147;;;1.88;85.39
62632;BME280;48703;51.248;-0.546;2022-12-18T10:23:11;101149;;;1.89;85.62
62632;BME280;48703;51.248;-0.546;2022-12-18T10:26:12;101144;;;1.91;85.65
62632;BME280;48703;51.248;-0.546;2022-12-18T10:29:14;101144;;;1.92;85.81
62632;BME280;48703;51.248;-0.546;2022-12-18T10:32:17;101133;;;1.92;85.97
62632;BME280;48703;51.248;-0.546;2022-12-18T10:35:19;101128;;;1.92;86.08
62632;BME280;48703;51.248;-0.546;2022-12-18T10:38:21;101114;;;1.92;86.24
62632;BME280;48703;51.248;-0.546;2022-12-18T10:41:24;101109;;;1.93;86.45
62632;BME280;48703;51.248;-0.546;2022-12-18T10:44:24;101113;;;1.92;86.73
62632;BME280;48703;51.248;-0.546;2022-12-18T10:47:25;101117;;;1.93;86.98
62632;BME280;48703;51.248;-0.546;2022-12-18T10:50:29;101113;;;1.92;87.24
62632;BME280;48703;51.248;-0.546;2022-12-18T10:53:30;101104;;;1.92;87.52
62632;BME280;48703;51.248;-0.546;2022-12-18T10:56:32;101093;;;1.92;87.85
62632;BME280;48703;51.248;-0.546;2022-12-18T10:59:35;101097;;;1.92;88.25
62632;BME280;48703;51.248;-0.546;2022-12-18T11:02:36;101090;;;1.91;88.35
62632;BME280;48703;51.248;-0.546;2022-12-18T11:05:38;101084;;;1.91;88.55
62632;BME280;48703;51.248;-0.546;2022-12-18T11:08:40;101083;;;1.92;88.78
62632;BME280;48703;51.248;-0.546;2022-12-18T11:11:41;101082;;;1.92;89.08
62632;BME280;48703;51.248;-0.546;2022-12-18T11:14:46;101082;;;1.92;89.14
62632;BME280;48703;51.248;-0.546;2022-12-18T11:17:46;101083;;;1.92;89.23
62632;BME280;48703;51.248;-0.546;2022-12-18T11:20:51;101069;;;1.92;89.45
62632;BME280;48703;51.248;-0.546;2022-12-18T11:23:50;101069;;;1.92;89.55
62632;BME280;48703;51.248;-0.546;2022-12-18T11:26:51;101059;;;1.93;89.77
62632;BME280;48703;51.248;-0.546;2022-12-18T11:29:07;101059;;;1.94;89.95
62632;BME280;48703;51.248;-0.546;2022-12-18T11:32:07;101063;;;1.95;89.98
62632;BME280;48703;51.248;-0.546;2022-12-18T11:34:59;101059;;;1.96;90.02
62632;BME280;48703;51.248;-0.546;2022-12-18T11:38:04;101054;;;1.96;90.38
62632;BME280;48703;51.248;-0.546;2022-12-18T11:41:02;101046;;;1.96;90.36
62632;BME280;48703;51.248;-0.546;2022-12-18T11:44:03;101034;;;1.96;90.42
62632;BME280;48703;51.248;-0.546;2022-12-18T11:47:07;101022;;;1.97;90.58
62632;BME280;48703;51.248;-0.546;2022-12-18T11:50:10;101012;;;1.97;91.13
62632;BME280;48703;51.248;-0.546;2022-12-18T11:53:09;100998;;;1.98;91.06
62632;BME280;48703;51.248;-0.546;2022-12-18T11:56:23;100981;;;1.99;91.18
62632;BME280;48703;51.248;-0.546;2022-12-18T11:59:15;100974;;;2.02;91.42
62632;BME280;48703;51.248;-0.546;2022-12-18T12:02:20;100964;;;2.05;91.65
62632;BME280;48703;51.248;-0.546;2022-12-18T12:05:20;100972;;;2.08;91.79
62632;BME280;48703;51.248;-0.546;2022-12-18T12:08:20;100964;;;2.10;91.90
62632;BME280;48703;51.248;-0.546;2022-12-18T12:11:22;100955;;;2.12;91.98
62632;BME280;48703;51.248;-0.546;2022-12-18T12:14:27;100961;;;2.14;92.07
62632;BME280;48703;51.248;-0.546;2022-12-18T12:17:27;100955;;;2.17;92.05
62632;BME280;48703;51.248;-0.546;2022-12-18T12:20:29;100937;;;2.19;92.20
62632;BME280;48703;51.248;-0.546;2022-12-18T12:23:31;100928;;;2.21;92.43
62632;BME280;48703;51.248;-0.546;2022-12-18T12:26:33;100922;;;2.23;92.52
62632;BME280;48703;51.248;-0.546;2022-12-18T12:29:36;100916;;;2.25;92.67
62632;BME280;48703;51.248;-0.546;2022-12-18T12:32:42;100907;;;2.28;92.96
62632;BME280;48703;51.248;-0.546;2022-12-18T12:35:42;100898;;;2.31;92.97
62632;BME280;48703;51.248;-0.546;2022-12-18T12:38:40;100887;;;2.35;93.04
62632;BME280;48703;51.248;-0.546;2022-12-18T12:41:41;100877;;;2.38;93.27
62632;BME280;48703;51.248;-0.546;2022-12-18T12:44:43;100871;;;2.40;93.31
62632;BME280;48703;51.248;-0.546;2022-12-18T12:47:45;100863;;;2.43;93.37
62632;BME280;48703;51.248;-0.546;2022-12-18T12:50:47;100855;;;2.46;93.57
62632;BME280;48703;51.248;-0.546;2022-12-18T12:53:49;100845;;;2.49;93.64
62632;BME280;48703;51.248;-0.546;2022-12-18T12:56:51;100843;;;2.52;93.77
62632;BME280;48703;51.248;-0.546;2022-12-18T12:59:56;100840;;;2.54;93.77
62632;BME280;48703;51.248;-0.546;2022-12-18T13:02:56;100837;;;2.57;93.84
62632;BME280;48703;51.248;-0.546;2022-12-18T13:05:58;100828;;;2.59;93.98
62632;BME280;48703;51.248;-0.546;2022-12-18T13:08:59;100822;;;2.62;93.97
62632;BME280;48703;51.248;-0.546;2022-12-18T13:12:02;100814;;;2.64;94.10
62632;BME280;48703;51.248;-0.546;2022-12-18T13:15:20;100813;;;2.66;94.19
62632;BME280;48703;51.248;-0.546;2022-12-18T13:18:13;100803;;;2.69;94.23
62632;BME280;48703;51.248;-0.546;2022-12-18T13:21:11;100796;;;2.70;94.36
62632;BME280;48703;51.248;-0.546;2022-12-18T13:24:14;100792;;;2.72;94.48
62632;BME280;48703;51.248;-0.546;2022-12-18T13:27:26;100784;;;2.75;94.54
62632;BME280;48703;51.248;-0.546;2022-12-18T13:30:36;100775;;;2.76;94.66
62632;BME280;48703;51.248;-0.546;2022-12-18T13:33:38;100776;;;2.78;94.66
62632;BME280;48703;51.248;-0.546;2022-12-18T13:36:25;100776;;;2.80;94.71
62632;BME280;48703;51.248;-0.546;2022-12-18T13:39:33;100773;;;2.81;94.73
62632;BME280;48703;51.248;-0.546;2022-12-18T13:42:36;100769;;;2.82;94.84
62632;BME280;48703;51.248;-0.546;2022-12-18T13:45:43;100766;;;2.84;95.03
62632;BME280;48703;51.248;-0.546;2022-12-18T13:48:25;100767;;;2.86;95.07
62632;BME280;48703;51.248;-0.546;2022-12-18T13:51:27;100767;;;2.87;95.07
62632;BME280;48703;51.248;-0.546;2022-12-18T13:54:30;100762;;;2.88;95.10
62632;BME280;48703;51.248;-0.546;2022-12-18T13:57:31;100753;;;2.89;95.12
62632;BME280;48703;51.248;-0.546;2022-12-18T14:00:33;100758;;;2.91;95.21
62632;BME280;48703;51.248;-0.546;2022-12-18T14:03:35;100755;;;2.93;95.32
62632;BME280;48703;51.248;-0.546;2022-12-18T14:06:37;100754;;;2.95;95.32
62632;BME280;48703;51.248;-0.546;2022-12-18T14:09:40;100746;;;2.98;95.52
62632;BME280;48703;51.248;-0.546;2022-12-18T14:12:44;100737;;;3.00;95.56
62632;BME280;48703;51.248;-0.546;2022-12-18T14:15:43;100732;;;3.03;95.62
62632;BME280;48703;51.248;-0.546;2022-12-18T14:18:45;100732;;;3.04;95.64
62632;BME280;48703;51.248;-0.546;2022-12-18T14:21:47;100731;;;3.06;95.74
62632;BME280;48703;51.248;-0.546;2022-12-18T14:24:58;100728;;;3.08;95.79
62632;BME280;48703;51.248;-0.546;2022-12-18T14:27:51;100725;;;3.10;95.94
62632;BME280;48703;51.248;-0.546;2022-12-18T14:30:53;100719;;;3.12;95.95
62632;BME280;48703;51.248;-0.546;2022-12-18T14:33:55;100715;;;3.15;96.08
62632;BME280;48703;51.248;-0.546;2022-12-18T14:36:57;100705;;;3.17;96.15
62632;BME280;48703;51.248;-0.546;2022-12-18T14:39:59;100704;;;3.20;96.22
62632;BME280;48703;51.248;-0.546;2022-12-18T14:43:00;100705;;;3.22;96.34
62632;BME280;48703;51.248;-0.546;2022-12-18T14:46:03;100702;;;3.25;96.42
62632;BME280;48703;51.248;-0.546;2022-12-18T14:49:05;100704;;;3.29;96.66
62632;BME280;48703;51.248;-0.546;2022-12-18T14:52:15;100700;;;3.31;96.69
62632;BME280;48703;51.248;-0.546;2022-12-18T14:55:14;100695;;;3.35;96.82
62632;BME280;48703;51.248;-0.546;2022-12-18T14:58:10;100690;;;3.39;96.90
62632;BME280;48703;51.248;-0.546;2022-12-18T15:01:17;100680;;;3.43;97.07
62632;BME280;48703;51.248;-0.546;2022-12-18T15:04:24;100679;;;3.49;97.19
62632;BME280;48703;51.248;-0.546;2022-12-18T15:07:18;100673;;;3.52;97.20
62632;BME280;48703;51.248;-0.546;2022-12-18T15:10:19;100675;;;3.55;97.28
62632;BME280;48703;51.248;-0.546;2022-12-18T15:13:21;100667;;;3.60;97.41
62632;BME280;48703;51.248;-0.546;2022-12-18T15:16:22;100660;;;3.65;97.55
62632;BME280;48703;51.248;-0.546;2022-12-18T15:19:26;100655;;;3.69;97.64
62632;BME280;48703;51.248;-0.546;2022-12-18T15:22:27;100644;;;3.76;97.89
62632;BME280;48703;51.248;-0.546;2022-12-18T15:25:30;100636;;;3.82;97.96
62632;BME280;48703;51.248;-0.546;2022-12-18T15:28:32;100628;;;3.89;98.15
62632;BME280;48703;51.248;-0.546;2022-12-18T15:31:33;100622;;;3.95;98.29
62632;BME280;48703;51.248;-0.546;2022-12-18T15:34:34;100623;;;4.01;98.35
62632;BME280;48703;51.248;-0.546;2022-12-18T15:37:37;100621;;;4.06;98.34
62632;BME280;48703;51.248;-0.546;2022-12-18T15:40:38;100618;;;4.11;98.42
62632;BME280;48703;51.248;-0.546;2022-12-18T15:43:40;100612;;;4.16;98.52
62632;BME280;48703;51.248;-0.546;2022-12-18T15:46:42;100615;;;4.22;98.65
62632;BME280;48703;51.248;-0.546;2022-12-18T15:49:44;100613;;;4.27;98.73
62632;BME280;48703;51.248;-0.546;2022-12-18T15:52:47;100616;;;4.34;98.86
62632;BME280;48703;51.248;-0.546;2022-12-18T15:55:48;100616;;;4.41;99.00
62632;BME280;48703;51.248;-0.546;2022-12-18T15:58:50;100620;;;4.49;99.09
62632;BME280;48703;51.248;-0.546;2022-12-18T16:01:52;100614;;;4.54;99.10
62632;BME280;48703;51.248;-0.546;2022-12-18T16:04:56;100603;;;4.58;99.08
62632;BME280;48703;51.248;-0.546;2022-12-18T16:07:56;100599;;;4.64;99.18
62632;BME280;48703;51.248;-0.546;2022-12-18T16:10:59;100593;;;4.68;99.20
62632;BME280;48703;51.248;-0.546;2022-12-18T16:14:00;100586;;;4.73;99.26
62632;BME280;48703;51.248;-0.546;2022-12-18T16:17:03;100581;;;4.80;99.43
62632;BME280;48703;51.248;-0.546;2022-12-18T16:20:05;100577;;;4.86;99.46
62632;BME280;48703;51.248;-0.546;2022-12-18T16:23:06;100572;;;4.92;99.53
62632;BME280;48703;51.248;-0.546;2022-12-18T16:26:08;100567;;;4.97;99.56